Terminal Aerodrome Forecast
Issued by NWS Brownsville, TX

Home | Current Version | Previous Version | Text Only | Print | Product List | Glossary On
Versions: 1 2 3 4 5 6 7 8 9 10 11 12 13 14 15 16 17 18 19 20 21 22
000
FTUS44 KBRO 211100
TAFBRO
TAF
KBRO 211133Z 2112/2212 34003KT P6SM VCSH SCT035 SCT080
     FM211600 08006KT P6SM VCTS SCT035CB
     FM220000 08010KT P6SM SCT035=

USA.gov is the U.S. government's official web portal to all federal, state and local government web resources and services.